Time;durP1;ratioP1;P1;durP2;ratioP2;P2;SDS_P1;SDS_P2;PMS_P1;PMS_P2;Temp;Humidity;BMP_temperature;BMP_pressure;BME280_temperature;BME280_humidity;BME280_pressure;Samples;Min_cycle;Max_cycle;Signal;HPM_P1;HPM_P2
2022/09/17 00:01:33;;;;;;;13.65;2.08;;;;;;;11.42;100.00;101126.88;5091478;28;20059;-48
2022/09/17 00:04:03;;;;;;;12.75;2.30;;;;;;;11.35;100.00;101122.94;5091773;28;20043;-48
2022/09/17 00:06:33;;;;;;;11.27;2.20;;;;;;;11.18;100.00;101108.22;5090526;28;20559;-50
2022/09/17 00:09:05;;;;;;;15.20;2.35;;;;;;;11.27;100.00;101122.59;5092152;28;20071;-47
2022/09/17 00:11:36;;;;;;;14.15;2.30;;;;;;;11.22;100.00;101122.03;5091975;28;20076;-48
2022/09/17 00:14:09;;;;;;;13.20;2.88;;;;;;;11.20;100.00;101124.75;5091669;28;20448;-47
2022/09/17 00:16:40;;;;;;;11.60;2.25;;;;;;;11.11;100.00;101112.19;5091814;28;20448;-46
2022/09/17 00:19:13;;;;;;;18.40;2.53;;;;;;;11.16;100.00;101112.72;5090627;28;20142;-48
2022/09/17 00:21:41;;;;;;;;;;;;;;;11.17;100.00;101122.34;5091068;28;20537;-50
2022/09/17 00:24:13;;;;;;;15.48;2.15;;;;;;;11.06;100.00;101122.16;5090285;28;20274;-49
2022/09/17 00:26:41;;;;;;;14.23;2.67;;;;;;;11.12;100.00;101121.78;5092091;28;20126;-49
2022/09/17 00:29:10;;;;;;;16.20;2.28;;;;;;;11.14;100.00;101123.38;5091298;28;20459;-49
2022/09/17 00:31:38;;;;;;;15.20;2.60;;;;;;;11.13;100.00;101134.81;5089899;28;20036;-48
2022/09/17 00:34:07;;;;;;;16.92;2.45;;;;;;;11.20;100.00;101129.19;5091680;28;20406;-47
2022/09/17 00:36:35;;;;;;;9.90;2.17;;;;;;;11.21;100.00;101129.09;5090143;28;20052;-49
2022/09/17 00:39:05;;;;;;;11.98;1.83;;;;;;;11.33;100.00;101138.84;5091187;28;20048;-47
2022/09/17 00:41:36;;;;;;;19.33;2.72;;;;;;;11.28;100.00;101137.44;5091623;28;20631;-48
2022/09/17 00:44:37;;;;;;;14.73;3.45;;;;;;;11.14;100.00;101125.16;5091281;28;20076;-49
2022/09/17 00:47:08;;;;;;;9.68;2.72;;;;;;;11.15;100.00;101140.00;5091534;28;20131;-50
2022/09/17 00:49:36;;;;;;;14.65;2.97;;;;;;;11.20;100.00;101137.09;5091634;28;20059;-51
2022/09/17 00:52:09;;;;;;;13.80;2.78;;;;;;;11.10;100.00;101139.47;5090592;28;20042;-46
2022/09/17 00:54:40;;;;;;;17.20;2.60;;;;;;;11.03;100.00;101144.25;5090892;28;20048;-49
2022/09/17 00:57:11;;;;;;;15.80;3.60;;;;;;;11.03;100.00;101140.75;5091194;28;20126;-52
2022/09/17 00:59:39;;;;;;;11.38;1.63;;;;;;;11.12;100.00;101143.66;5090561;28;20052;-52
2022/09/17 01:02:07;;;;;;;14.77;2.20;;;;;;;11.11;100.00;101136.72;5091205;28;20059;-49
2022/09/17 01:04:35;;;;;;;12.60;2.08;;;;;;;11.07;100.00;101144.91;5089100;28;20059;-51
2022/09/17 01:07:10;;;;;;;14.93;1.92;;;;;;;11.08;100.00;101138.69;5090200;28;20044;-51
2022/09/17 01:09:48;;;;;;;10.68;1.90;;;;;;;11.03;100.00;101140.75;5090952;28;20511;-50
2022/09/17 01:12:37;;;;;;;11.65;1.90;;;;;;;11.11;100.00;101149.03;5090646;28;20040;-46
2022/09/17 01:15:21;;;;;;;8.15;1.95;;;;;;;11.15;100.00;101154.03;5090542;28;20058;-51
2022/09/17 01:18:03;;;;;;;13.63;2.33;;;;;;;11.15;100.00;101147.88;5089844;28;20048;-52
2022/09/17 01:21:30;;;;;;;14.75;2.63;;;;;;;11.09;100.00;101148.28;5089234;28;20071;-51
2022/09/17 01:24:46;;;;;;;13.70;2.30;;;;;;;11.01;100.00;101153.19;5089747;28;20139;-48
2022/09/17 01:27:56;;;;;;;11.55;2.40;;;;;;;10.85;100.00;101166.44;5022483;28;20495;-49
2022/09/17 01:31:18;;;;;;;10.77;2.25;;;;;;;10.90;100.00;101164.38;5089502;28;20954;-51
2022/09/17 01:33:57;;;;;;;16.15;3.10;;;;;;;10.93;100.00;101162.38;5089153;28;20418;-51
2022/09/17 01:36:41;;;;;;;11.93;2.55;;;;;;;10.85;100.00;101154.13;5089077;28;20052;-49
2022/09/17 01:39:18;;;;;;;16.45;2.53;;;;;;;10.80;100.00;101164.09;5090483;28;20125;-51
2022/09/17 01:41:52;;;;;;;10.65;2.30;;;;;;;10.83;100.00;101164.72;5090431;28;20052;-52
2022/09/17 01:44:29;;;;;;;10.95;1.83;;;;;;;10.79;100.00;101165.03;5090450;28;20076;-49
2022/09/17 01:47:05;;;;;;;12.82;1.90;;;;;;;10.79;100.00;101179.03;5090311;28;20090;-50
2022/09/17 01:49:37;;;;;;;9.07;1.30;;;;;;;10.79;100.00;101178.19;5090144;28;20055;-51
2022/09/17 01:52:09;;;;;;;7.55;1.52;;;;;;;10.92;100.00;101179.13;5089397;28;20052;-51
2022/09/17 01:54:43;;;;;;;10.30;1.75;;;;;;;10.95;100.00;101186.84;5090264;28;20052;-49
2022/09/17 01:57:17;;;;;;;10.18;2.35;;;;;;;10.96;100.00;101185.03;5090639;28;20083;-49
2022/09/17 01:59:51;;;;;;;12.70;1.98;;;;;;;10.86;100.00;101187.38;5089902;28;20113;-51
2022/09/17 02:02:25;;;;;;;10.15;1.63;;;;;;;10.81;100.00;101187.69;5090122;28;20544;-50
2022/09/17 02:04:59;;;;;;;12.80;1.80;;;;;;;10.92;100.00;101175.63;5089228;28;20117;-51
2022/09/17 02:07:30;;;;;;;13.63;1.63;;;;;;;10.92;100.00;101176.50;5088902;28;20546;-50
2022/09/17 02:10:04;;;;;;;14.98;3.03;;;;;;;10.93;100.00;101180.81;5090362;28;20453;-50
2022/09/17 02:12:37;;;;;;;14.88;2.50;;;;;;;10.98;100.00;101180.53;5088461;28;20052;-50
2022/09/17 02:15:10;;;;;;;14.00;2.83;;;;;;;10.97;100.00;101186.72;5090450;28;20655;-51
2022/09/17 02:17:44;;;;;;;13.65;2.58;;;;;;;10.92;100.00;101181.75;5094715;28;20443;-47
2022/09/17 02:20:13;;;;;;;11.27;2.25;;;;;;;10.89;100.00;101181.94;5092500;28;20142;-49
2022/09/17 02:22:50;;;;;;;15.23;2.33;;;;;;;10.78;100.00;101182.59;5093872;28;20517;-50
2022/09/17 02:25:24;;;;;;;14.07;2.00;;;;;;;10.87;100.00;101189.09;5094032;28;20150;-53
2022/09/17 02:27:59;;;;;;;10.85;2.08;;;;;;;10.87;100.00;101183.00;5094094;28;20118;-50
2022/09/17 02:30:30;;;;;;;12.48;2.10;;;;;;;10.79;100.00;101175.56;5093665;28;20048;-52
2022/09/17 02:33:02;;;;;;;14.50;2.13;;;;;;;10.95;100.00;101186.84;5094246;28;20040;-52
2022/09/17 02:35:31;;;;;;;8.60;1.80;;;;;;;10.92;100.00;101179.13;5092097;28;20123;-49
2022/09/17 02:37:59;;;;;;;13.95;2.22;;;;;;;10.89;100.00;101181.94;5093537;28;20055;-49
2022/09/17 02:40:31;;;;;;;12.73;2.30;;;;;;;10.88;100.00;101179.41;5093989;28;20055;-48
2022/09/17 02:43:11;;;;;;;10.02;1.73;;;;;;;10.95;100.00;101192.09;5093536;28;20040;-49
2022/09/17 02:45:50;;;;;;;12.60;2.15;;;;;;;10.82;100.00;101186.75;5093538;28;20436;-47
2022/09/17 02:48:43;;;;;;;12.40;2.60;;;;;;;10.76;100.00;101191.53;5093552;28;20364;-51
2022/09/17 02:51:22;;;;;;;9.80;1.88;;;;;;;10.72;100.00;101195.28;5091982;28;20085;-49
2022/09/17 02:54:00;;;;;;;14.63;2.08;;;;;;;10.85;100.00;101201.47;5093360;28;20044;-50
2022/09/17 02:56:43;;;;;;;16.42;2.17;;;;;;;10.90;100.00;101196.78;5093584;28;20518;-52
2022/09/17 02:59:18;;;;;;;21.63;2.40;;;;;;;10.84;100.00;101197.19;5093722;28;20076;-48
2022/09/17 03:01:53;;;;;;;12.93;2.30;;;;;;;10.71;100.00;101193.59;5092897;28;20539;-48
2022/09/17 03:04:25;;;;;;;14.90;2.28;;;;;;;10.73;100.00;101199.59;5091468;28;20078;-47
2022/09/17 03:06:53;;;;;;;8.32;1.90;;;;;;;10.67;100.00;101205.22;5092609;28;20105;-49
2022/09/17 03:09:21;;;;;;;12.85;2.05;;;;;;;10.69;100.00;101195.44;5093056;28;20040;-49
2022/09/17 03:11:49;;;;;;;8.65;1.95;;;;;;;10.69;100.00;101198.94;5091972;28;20561;-49
2022/09/17 03:14:19;;;;;;;14.98;2.08;;;;;;;10.63;100.00;101192.28;5092589;28;20123;-53
2022/09/17 03:16:47;;;;;;;12.65;1.98;;;;;;;10.47;100.00;101191.47;5092853;28;20075;-51
2022/09/17 03:19:18;;;;;;;10.60;2.13;;;;;;;10.40;100.00;101193.63;5093161;28;20079;-51
2022/09/17 03:21:48;;;;;;;11.23;1.80;;;;;;;10.40;100.00;101188.38;5092319;28;20082;-51
2022/09/17 03:24:16;;;;;;;10.45;1.90;;;;;;;10.39;100.00;101189.31;5092948;28;20044;-48
2022/09/17 03:26:46;;;;;;;11.15;1.80;;;;;;;10.43;100.00;101193.44;5092430;28;20052;-51
2022/09/17 03:29:14;;;;;;;12.35;1.48;;;;;;;10.34;100.00;101178.19;5092405;28;20074;-49
2022/09/17 03:31:42;;;;;;;13.20;2.25;;;;;;;10.26;100.00;101186.50;5092167;28;20127;-50
2022/09/17 03:34:10;;;;;;;12.98;2.35;;;;;;;10.24;100.00;101185.75;5092360;28;20048;-50
2022/09/17 03:36:38;;;;;;;13.63;1.70;;;;;;;10.25;100.00;101179.56;5091621;28;20505;-49
2022/09/17 03:39:08;;;;;;;11.55;1.55;;;;;;;10.20;100.00;101184.25;5092841;28;20060;-48
2022/09/17 03:41:36;;;;;;;12.13;1.90;;;;;;;10.17;100.00;101180.94;5092743;28;20044;-50
2022/09/17 03:44:04;;;;;;;11.60;1.92;;;;;;;10.15;100.00;101181.88;5092974;28;20040;-51
2022/09/17 03:46:32;;;;;;;12.68;1.92;;;;;;;10.05;100.00;101188.59;5092223;28;20044;-49
2022/09/17 03:49:02;;;;;;;10.07;1.60;;;;;;;10.03;100.00;101185.19;5092342;28;20050;-51
2022/09/17 03:51:30;;;;;;;10.30;2.80;;;;;;;9.88;100.00;101181.66;5090693;28;20082;-50
2022/09/17 03:53:59;;;;;;;10.18;1.90;;;;;;;9.88;100.00;101180.84;5092844;28;20458;-53
2022/09/17 03:56:28;;;;;;;8.85;1.70;;;;;;;9.82;100.00;101179.41;5092121;28;20105;-50
2022/09/17 03:58:58;;;;;;;9.50;1.80;;;;;;;9.75;100.00;101183.31;5092378;28;20109;-47
2022/09/17 04:01:27;;;;;;;15.43;2.17;;;;;;;9.76;100.00;101188.50;5091914;28;20490;-51
2022/09/17 04:03:56;;;;;;;6.95;1.85;;;;;;;9.71;100.00;101193.16;5091844;28;20048;-51
2022/09/17 04:06:24;;;;;;;8.68;1.75;;;;;;;9.84;100.00;101197.69;5090826;28;20514;-49
2022/09/17 04:08:52;;;;;;;7.80;1.70;;;;;;;9.88;100.00;101207.09;5092207;28;20044;-51
2022/09/17 04:11:20;;;;;;;8.02;1.75;;;;;;;9.85;100.00;101213.38;5092094;28;20056;-47
2022/09/17 04:13:50;;;;;;;11.52;2.17;;;;;;;9.91;100.00;101210.41;5092103;28;20486;-48
2022/09/17 04:16:18;;;;;;;12.20;2.42;;;;;;;9.88;100.00;101210.56;5091499;28;20531;-47
2022/09/17 04:18:46;;;;;;;9.10;2.13;;;;;;;9.86;100.00;101209.81;5091831;28;20089;-49
2022/09/17 04:21:14;;;;;;;11.65;2.33;;;;;;;9.84;100.00;101223.97;5090236;28;20047;-48
2022/09/17 04:23:42;;;;;;;9.95;2.10;;;;;;;9.82;100.00;101218.81;5091756;28;20429;-51
2022/09/17 04:26:10;;;;;;;10.00;1.80;;;;;;;9.81;100.00;101217.94;5090743;28;20055;-49
2022/09/17 04:28:38;;;;;;;12.48;2.17;;;;;;;9.79;100.00;101226.88;5091907;28;20040;-48
2022/09/17 04:31:07;;;;;;;9.60;1.80;;;;;;;9.78;100.00;101222.53;5090086;28;20048;-49
2022/09/17 04:33:36;;;;;;;10.38;1.70;;;;;;;9.83;100.00;101223.13;5090252;28;20048;-49
2022/09/17 04:36:04;;;;;;;13.48;1.95;;;;;;;9.84;100.00;101221.34;5090687;28;20032;-50
2022/09/17 04:38:33;;;;;;;8.05;1.40;;;;;;;9.90;100.00;101221.84;5090879;28;20058;-49
2022/09/17 04:41:01;;;;;;;10.52;1.63;;;;;;;9.90;100.00;101213.97;5091588;28;20048;-48
2022/09/17 04:43:29;;;;;;;11.63;2.03;;;;;;;9.81;100.00;101217.09;5090886;28;20044;-47
2022/09/17 04:45:57;;;;;;;9.93;1.65;;;;;;;9.74;100.00;101219.22;5090673;28;20136;-51
2022/09/17 04:48:27;;;;;;;6.82;1.27;;;;;;;9.65;100.00;101211.84;5091103;28;20040;-46
2022/09/17 04:50:55;;;;;;;9.90;2.20;;;;;;;9.68;100.00;101216.09;5088681;28;20059;-50
2022/09/17 04:53:23;;;;;;;8.45;1.80;;;;;;;9.53;100.00;101212.53;5091455;28;20119;-50
2022/09/17 04:55:51;;;;;;;10.77;1.88;;;;;;;9.60;100.00;101212.13;5091584;28;20036;-48
2022/09/17 04:58:19;;;;;;;9.75;1.40;;;;;;;9.50;100.00;101207.47;5091158;28;20048;-52
2022/09/17 05:00:48;;;;;;;11.70;2.10;;;;;;;9.45;100.00;101216.44;5089360;28;20076;-49
2022/09/17 05:03:16;;;;;;;10.73;1.83;;;;;;;9.37;100.00;101212.53;5090778;28;20048;-49
2022/09/17 05:05:45;;;;;;;9.40;1.85;;;;;;;9.29;100.00;101213.78;5089038;28;20044;-50
2022/09/17 05:08:13;;;;;;;13.07;2.33;;;;;;;9.31;100.00;101218.94;5091101;28;20064;-51
2022/09/17 05:10:41;;;;;;;10.32;2.28;;;;;;;9.29;100.00;101213.78;5091529;28;20040;-50
2022/09/17 05:13:09;;;;;;;9.98;1.90;;;;;;;9.26;100.00;101219.19;5091060;28;20117;-49
2022/09/17 05:15:37;;;;;;;8.45;2.03;;;;;;;9.26;100.00;101219.19;5090416;28;20071;-50
2022/09/17 05:18:05;;;;;;;9.25;1.98;;;;;;;9.38;100.00;101222.09;5090813;28;20157;-48
2022/09/17 05:20:33;;;;;;;8.95;1.85;;;;;;;9.28;100.00;101229.63;5089503;28;20068;-48
2022/09/17 05:23:03;;;;;;;11.48;1.52;;;;;;;9.21;100.00;101228.25;5090778;28;20079;-49
2022/09/17 05:25:31;;;;;;;11.82;1.45;;;;;;;9.15;100.00;101229.44;5091208;28;20094;-48
2022/09/17 05:28:00;;;;;;;10.57;1.60;;;;;;;9.13;100.00;101231.28;5090813;28;20050;-48
2022/09/17 05:30:28;;;;;;;9.05;1.40;;;;;;;9.07;100.00;101236.88;5090079;28;20054;-49
2022/09/17 05:33:01;;;;;;;8.18;1.35;;;;;;;9.08;100.00;101238.53;5090707;28;20044;-47
2022/09/17 05:35:31;;;;;;;8.75;1.63;;;;;;;9.13;100.00;101241.78;5089173;28;20379;-47
2022/09/17 05:38:00;;;;;;;8.40;1.38;;;;;;;9.14;100.00;101243.47;5091122;28;20029;-48
2022/09/17 05:40:31;;;;;;;9.20;1.88;;;;;;;9.00;100.00;101252.06;5090605;28;20164;-49
2022/09/17 05:43:00;;;;;;;9.02;1.90;;;;;;;9.12;100.00;101255.81;5090724;28;20453;-51
2022/09/17 05:45:29;;;;;;;10.75;2.10;;;;;;;9.09;100.00;101255.97;5089171;28;20050;-51
2022/09/17 05:47:58;;;;;;;9.55;2.10;;;;;;;9.08;100.00;101259.53;5090530;28;20051;-47
2022/09/17 05:50:27;;;;;;;9.10;2.65;;;;;;;9.18;100.00;101260.75;5088505;28;20039;-48
2022/09/17 05:52:56;;;;;;;9.73;1.85;;;;;;;9.27;100.00;101259.41;5090407;28;20123;-49
2022/09/17 05:55:25;;;;;;;14.48;2.40;;;;;;;9.25;100.00;101263.91;5090026;28;20109;-48
2022/09/17 05:57:54;;;;;;;9.93;1.42;;;;;;;9.11;100.00;101254.97;5090744;28;20040;-49
2022/09/17 06:00:23;;;;;;;18.45;2.25;;;;;;;9.09;100.00;101250.75;5088827;28;20048;-48
2022/09/17 06:02:54;;;;;;;10.00;1.70;;;;;;;9.11;100.00;101254.97;5090370;28;20051;-48
2022/09/17 06:05:23;;;;;;;8.68;2.05;;;;;;;9.08;100.00;101270.03;5089008;28;20547;-51
2022/09/17 06:07:51;;;;;;;9.93;1.98;;;;;;;9.07;100.00;101277.06;5090054;28;20131;-51
2022/09/17 06:10:19;;;;;;;11.38;2.38;;;;;;;9.06;100.00;101272.72;5088525;28;20055;-48
2022/09/17 06:12:47;;;;;;;12.55;2.13;;;;;;;9.13;100.00;101281.13;5090278;28;20048;-46
2022/09/17 06:15:16;;;;;;;12.60;1.92;;;;;;;9.24;100.00;101286.69;5089169;28;20042;-47
2022/09/17 06:17:45;;;;;;;7.13;1.80;;;;;;;9.26;100.00;101279.56;5090381;28;20075;-49
2022/09/17 06:20:15;;;;;;;12.90;2.42;;;;;;;9.22;100.00;101280.66;5088975;28;20054;-49
2022/09/17 06:22:43;;;;;;;11.60;2.28;;;;;;;9.24;100.00;101284.06;5089893;28;20044;-48
2022/09/17 06:25:11;;;;;;;16.13;3.15;;;;;;;9.42;100.00;101284.00;5089810;28;20072;-50
2022/09/17 06:27:39;;;;;;;14.23;2.80;;;;;;;9.42;100.00;101281.38;5090270;28;20453;-50
2022/09/17 06:30:08;;;;;;;14.43;2.85;;;;;;;9.44;100.00;101283.00;5089777;28;20044;-49
2022/09/17 06:32:37;;;;;;;9.55;2.30;;;;;;;9.57;100.00;101282.31;5090359;28;20432;-48
2022/09/17 06:35:07;;;;;;;8.13;2.05;;;;;;;9.57;100.00;101282.31;5088815;28;20059;-50
2022/09/17 06:37:39;;;;;;;8.85;1.60;;;;;;;9.58;100.00;101284.88;5090226;28;20097;-48
2022/09/17 06:40:08;;;;;;;8.73;1.67;;;;;;;9.67;100.00;101290.56;5090144;28;20056;-49
2022/09/17 06:42:37;;;;;;;9.13;1.88;;;;;;;9.68;100.00;101287.88;5090137;28;20559;-50
2022/09/17 06:45:08;;;;;;;11.63;2.47;;;;;;;9.77;100.00;101281.25;5089804;28;20032;-47
2022/09/17 06:47:44;;;;;;;9.35;2.45;;;;;;;9.83;100.00;101283.56;5090046;28;20070;-52
2022/09/17 06:50:12;;;;;;;12.07;2.50;;;;;;;9.88;100.00;101288.53;5089022;28;20105;-50
2022/09/17 06:52:48;;;;;;;11.75;2.00;;;;;;;9.91;100.00;101291.88;5089924;28;20048;-48
2022/09/17 06:55:16;;;;;;;8.07;1.73;;;;;;;9.98;100.00;101289.75;5089374;28;20072;-48
2022/09/17 06:57:45;;;;;;;12.35;1.60;;;;;;;10.09;100.00;101287.34;5090035;28;20043;-47
2022/09/17 07:00:14;;;;;;;11.40;1.80;;;;;;;10.21;100.00;101284.97;5088844;28;20048;-49
2022/09/17 07:02:50;;;;;;;6.85;1.27;;;;;;;10.31;100.00;101292.25;5091253;28;20040;-48
2022/09/17 07:05:18;;;;;;;10.18;1.70;;;;;;;10.35;100.00;101290.34;5092105;28;20498;-50
2022/09/17 07:07:46;;;;;;;12.20;1.98;;;;;;;10.49;100.00;101292.16;5093614;28;20937;-49
2022/09/17 07:10:16;;;;;;;11.70;1.60;;;;;;;10.57;100.00;101283.84;5093162;28;20058;-52
2022/09/17 07:12:47;;;;;;;10.40;1.40;;;;;;;10.67;100.00;101295.50;5093222;28;20652;-51
2022/09/17 07:15:17;;;;;;;12.32;1.60;;;;;;;10.76;100.00;101287.06;5092470;28;20051;-49
2022/09/17 07:17:46;;;;;;;10.32;2.10;;;;;;;10.85;100.00;101293.56;5091835;28;20159;-50
2022/09/17 07:20:15;;;;;;;12.20;1.88;;;;;;;10.98;100.00;101294.53;5091624;28;20055;-48
2022/09/17 07:22:43;;;;;;;6.55;1.17;;;;;;;11.08;100.00;101300.09;5091513;28;20056;-49
2022/09/17 07:25:11;;;;;;;9.80;1.50;;;;;;;11.25;100.00;101285.94;5092723;28;20505;-48
2022/09/17 07:27:39;;;;;;;8.63;1.73;;;;;;;11.45;100.00;101292.59;5093329;28;20052;-51
2022/09/17 07:30:09;;;;;;;9.40;1.30;;;;;;;11.68;100.00;101287.69;5092194;28;20043;-49
2022/09/17 07:32:37;;;;;;;8.40;1.70;;;;;;;11.85;100.00;101286.63;5093053;28;20040;-49
2022/09/17 07:35:07;;;;;;;6.20;1.05;;;;;;;11.95;100.00;101292.19;5091473;28;20063;-50
2022/09/17 07:37:35;;;;;;;7.25;1.10;;;;;;;11.99;100.00;101291.88;5093063;28;20097;-48
2022/09/17 07:40:04;;;;;;;10.15;1.42;;;;;;;11.95;100.00;101290.38;5092422;28;20066;-49
2022/09/17 07:42:32;;;;;;;8.82;1.55;;;;;;;12.07;100.00;101295.84;5092507;28;20052;-51
2022/09/17 07:45:01;;;;;;;8.95;1.50;;;;;;;12.12;100.00;101296.38;5092154;28;20122;-51
2022/09/17 07:47:31;;;;;;;8.48;1.20;;;;;;;12.17;100.00;101295.16;5092717;28;20762;-51
2022/09/17 07:49:59;;;;;;;11.00;1.83;;;;;;;12.60;100.00;101288.84;5091134;28;20079;-46
2022/09/17 07:52:29;;;;;;;12.10;1.70;;;;;;;12.77;100.00;101292.13;5092330;28;20048;-47
2022/09/17 07:54:57;;;;;;;10.02;1.75;;;;;;;12.93;100.00;101281.38;5092203;28;20044;-48
2022/09/17 07:57:25;;;;;;;7.35;1.38;;;;;;;13.26;100.00;101278.19;5092661;28;20509;-50
2022/09/17 07:59:53;;;;;;;9.43;1.20;;;;;;;13.29;100.00;101283.28;5091752;28;20117;-49
2022/09/17 08:02:21;;;;;;;7.85;1.33;;;;;;;13.47;100.00;101280.31;5092113;28;20135;-48
2022/09/17 08:04:52;;;;;;;10.70;1.50;;;;;;;13.62;100.00;101278.38;5089663;28;20079;-53
2022/09/17 08:07:20;;;;;;;7.82;1.10;;;;;;;13.76;100.00;101274.78;5091857;28;20504;-49
2022/09/17 08:09:50;;;;;;;7.22;1.10;;;;;;;13.74;97.10;101282.81;5092333;28;20064;-52
2022/09/17 08:12:18;;;;;;;6.15;1.08;;;;;;;14.06;98.52;101282.28;5091818;28;20052;-51
2022/09/17 08:14:46;;;;;;;7.95;1.15;;;;;;;14.22;98.03;101275.88;5091648;28;20559;-49
2022/09/17 08:17:14;;;;;;;7.63;1.20;;;;;;;14.18;95.15;101281.38;5092052;28;20075;-49
2022/09/17 08:19:42;;;;;;;5.43;0.95;;;;;;;14.43;96.20;101284.03;5090382;28;20113;-53
2022/09/17 08:22:10;;;;;;;9.95;1.30;;;;;;;14.58;94.28;101284.69;5091175;28;20474;-53
2022/09/17 08:24:38;;;;;;;11.68;1.40;;;;;;;14.67;92.53;101282.22;5090556;28;20550;-51
2022/09/17 08:27:08;;;;;;;9.70;1.20;;;;;;;14.81;91.63;101275.88;5092007;28;20123;-50
2022/09/17 08:29:36;;;;;;;9.55;1.58;;;;;;;15.00;89.56;101277.13;5091390;28;20494;-52
2022/09/17 08:32:04;;;;;;;6.72;1.55;;;;;;;15.26;88.61;101275.09;5090512;28;20101;-49
2022/09/17 08:34:32;;;;;;;8.65;1.48;;;;;;;15.32;87.16;101274.59;5089993;28;20105;-50
2022/09/17 08:37:01;;;;;;;6.68;1.17;;;;;;;15.34;84.75;101275.31;5090257;28;20557;-55
2022/09/17 08:39:29;;;;;;;4.70;1.40;;;;;;;15.41;85.08;101274.84;5090989;28;20527;-50
2022/09/17 08:42:08;;;;;;;6.93;1.02;;;;;;;15.21;85.59;101278.09;5091593;28;20044;-54
2022/09/17 08:44:42;;;;;;;8.27;1.17;;;;;;;15.00;84.81;101274.47;5091623;28;20131;-53
2022/09/17 08:47:17;;;;;;;7.72;1.45;;;;;;;15.24;83.46;101284.94;5091384;28;20457;-49
2022/09/17 08:49:50;;;;;;;5.72;1.05;;;;;;;15.37;82.75;101275.06;5090684;28;20051;-52
2022/09/17 08:52:38;;;;;;;8.27;1.20;;;;;;;15.69;80.91;101273.47;5091163;28;20127;-53
2022/09/17 08:55:16;;;;;;;6.28;1.17;;;;;;;15.48;80.07;101276.88;5091731;28;20056;-52
2022/09/17 08:57:51;;;;;;;7.88;1.10;;;;;;;15.47;81.77;101279.66;5091561;28;20083;-51
2022/09/17 09:00:22;;;;;;;6.47;0.90;;;;;;;15.77;82.67;101270.22;5090512;28;20403;-53
2022/09/17 09:03:09;;;;;;;7.63;1.30;;;;;;;15.59;77.48;101268.06;5089927;28;20091;-55
2022/09/17 09:05:43;;;;;;;5.03;1.02;;;;;;;15.71;78.51;101283.00;5090228;28;20071;-54
2022/09/17 09:08:17;;;;;;;4.78;0.85;;;;;;;15.48;77.72;101274.22;5090643;28;20097;-51
2022/09/17 09:10:50;;;;;;;6.53;1.13;;;;;;;15.65;77.47;101275.56;5091261;28;20066;-54
2022/09/17 09:13:21;;;;;;;6.45;1.00;;;;;;;15.48;70.52;101276.03;5089082;28;20135;-52
2022/09/17 09:15:56;;;;;;;7.15;0.98;;;;;;;15.42;68.83;101273.88;5090547;28;20047;-55
2022/09/17 09:18:29;;;;;;;4.95;0.90;;;;;;;15.63;69.63;101279.28;5090477;28;20040;-50
2022/09/17 09:21:08;;;;;;;4.38;1.23;;;;;;;15.70;69.38;101277.81;5089256;28;20052;-54
2022/09/17 09:23:47;;;;;;;5.82;0.90;;;;;;;16.05;70.43;101276.81;5090642;28;20044;-51
2022/09/17 09:26:18;;;;;;;3.92;1.08;;;;;;;16.21;70.07;101274.59;5090355;28;20040;-55
2022/09/17 09:29:10;;;;;;;4.15;0.70;;;;;;;16.27;67.98;101273.25;5090338;28;20051;-53
2022/09/17 09:32:02;;;;;;;7.05;1.20;;;;;;;16.64;69.03;101278.13;5090415;28;20520;-54
2022/09/17 09:34:33;;;;;;;5.70;0.95;;;;;;;16.72;67.03;101280.97;5090495;28;20040;-54
2022/09/17 09:37:14;;;;;;;4.07;0.93;;;;;;;16.71;64.69;101283.78;5089371;28;20051;-54
2022/09/17 09:39:45;;;;;;;5.90;1.30;;;;;;;16.87;65.34;101276.19;5090381;28;20046;-52
2022/09/17 09:42:22;;;;;;;7.80;1.00;;;;;;;17.10;66.25;101273.41;5090083;28;20486;-53
2022/09/17 09:44:50;;;;;;;5.60;0.90;;;;;;;17.32;65.03;101272.38;5089740;28;20048;-55
2022/09/17 09:47:32;;;;;;;7.20;1.17;;;;;;;17.64;62.80;101266.06;5090248;28;20070;-54
2022/09/17 09:50:18;;;;;;;7.72;0.98;;;;;;;17.37;64.10;101270.19;5089377;28;20051;-54
2022/09/17 09:52:59;;;;;;;5.13;1.30;;;;;;;17.53;64.55;101279.47;5090281;28;20040;-56
2022/09/17 09:55:51;;;;;;;6.43;1.23;;;;;;;17.54;63.70;101283.81;5090103;28;20044;-56
2022/09/17 09:58:29;;;;;;;4.18;0.93;;;;;;;16.62;70.41;101325.22;5090070;28;20032;-53
2022/09/17 10:01:00;;;;;;;4.93;0.65;;;;;;;15.65;79.51;101309.16;5089931;28;20465;-51
2022/09/17 10:03:31;;;;;;;4.35;0.77;;;;;;;15.63;85.28;101321.69;5089935;28;20052;-50
2022/09/17 10:06:02;;;;;;;4.65;0.82;;;;;;;15.42;86.85;101308.31;5088743;28;20494;-48
2022/09/17 10:08:32;;;;;;;7.45;1.05;;;;;;;15.09;90.40;101302.88;5090221;28;20459;-50
2022/09/17 10:11:01;;;;;;;3.03;0.70;;;;;;;14.98;95.11;101303.72;5089037;28;20056;-47
2022/09/17 10:13:31;;;;;;;3.47;0.80;;;;;;;14.87;95.51;101306.31;5090091;28;20040;-49
2022/09/17 10:16:16;;;;;;;6.53;1.05;;;;;;;14.92;98.14;101298.03;5089894;28;20448;-48
2022/09/17 10:18:47;;;;;;;4.75;0.70;;;;;;;14.99;95.93;101297.44;5090216;28;20451;-49
2022/09/17 10:21:21;;;;;;;3.50;0.63;;;;;;;15.09;91.69;101297.56;5088398;28;20514;-47
2022/09/17 10:23:50;;;;;;;4.20;0.60;;;;;;;15.10;96.93;101304.56;5090089;28;20131;-47
2022/09/17 10:26:22;;;;;;;4.82;1.30;;;;;;;14.81;94.55;101310.28;5089846;28;20040;-51
2022/09/17 10:28:53;;;;;;;4.45;0.80;;;;;;;14.79;96.45;101321.94;5089855;28;20093;-49
2022/09/17 10:31:22;;;;;;;5.88;0.70;;;;;;;14.54;98.13;101335.19;5087958;28;20044;-48
2022/09/17 10:33:57;;;;;;;6.07;1.00;;;;;;;14.41;100.00;101334.41;5089881;28;20564;-48
2022/09/17 10:36:41;;;;;;;4.40;0.90;;;;;;;14.30;100.00;101337.84;5088843;28;20055;-47
2022/09/17 10:39:26;;;;;;;4.63;1.00;;;;;;;14.09;100.00;101339.41;5092409;28;20466;-48
2022/09/17 10:41:55;;;;;;;5.47;1.08;;;;;;;13.77;100.00;101345.19;5095118;28;20048;-48
2022/09/17 10:44:25;;;;;;;7.22;1.00;;;;;;;13.98;100.00;101363.97;5093437;28;20089;-47
2022/09/17 10:46:54;;;;;;;8.68;1.35;;;;;;;13.75;100.00;101384.94;5093634;28;20406;-47
2022/09/17 10:49:36;;;;;;;3.40;0.60;;;;;;;13.12;99.80;101365.47;5093319;28;20083;-47
2022/09/17 10:52:06;;;;;;;3.20;0.52;;;;;;;12.92;100.00;101335.97;5092763;28;20048;-46
2022/09/17 10:55:07;;;;;;;3.40;0.70;;;;;;;12.60;100.00;101325.78;5093703;28;20457;-52
2022/09/17 10:57:54;;;;;;;2.22;0.50;;;;;;;12.92;100.00;101321.94;5093718;28;20127;-49
2022/09/17 11:00:23;;;;;;;3.38;0.77;;;;;;;13.22;100.00;101323.44;5092968;28;20052;-50
2022/09/17 11:03:20;;;;;;;3.15;0.65;;;;;;;13.48;100.00;101313.72;5093742;28;20499;-48
2022/09/17 11:06:10;;;;;;;2.60;0.57;;;;;;;14.26;100.00;101302.00;5091856;28;20131;-49
2022/09/17 11:08:47;;;;;;;;;;;;;;;14.58;100.00;101309.34;5093794;28;20051;-50
2022/09/17 11:11:27;;;;;;;2.25;0.73;;;;;;;14.82;100.00;101309.34;5092593;28;19920;-52
2022/09/17 11:14:10;;;;;;;1.17;0.50;;;;;;;15.67;100.00;101297.47;5092938;28;20052;-51
2022/09/17 11:16:43;;;;;;;2.67;0.77;;;;;;;15.74;94.44;101287.22;5093377;28;20602;-52
2022/09/17 11:19:25;;;;;;;3.88;0.68;;;;;;;15.83;96.04;101269.78;5091716;28;20060;-52
2022/09/17 11:22:03;;;;;;;4.47;1.05;;;;;;;16.37;94.72;101274.19;5091182;28;20364;-51
2022/09/17 11:24:47;;;;;;;4.43;1.08;;;;;;;16.29;99.30;101270.47;5091809;28;20052;-53
2022/09/17 11:27:32;;;;;;;6.25;1.02;;;;;;;16.88;92.17;101266.41;5092702;28;20415;-52
2022/09/17 11:30:14;;;;;;;3.78;0.80;;;;;;;17.19;93.24;101258.47;5091216;28;20131;-49
2022/09/17 11:33:07;;;;;;;6.33;1.10;;;;;;;17.14;87.42;101260.69;5093049;28;20187;-49
2022/09/17 11:35:37;;;;;;;5.97;0.90;;;;;;;17.20;83.81;101250.38;5091375;28;20413;-53
2022/09/17 11:38:13;;;;;;;6.40;1.13;;;;;;;17.55;85.42;101251.75;5092991;28;20490;-52
2022/09/17 11:40:46;;;;;;;6.30;1.00;;;;;;;17.97;82.64;101244.59;5093287;28;20048;-54
2022/09/17 11:43:19;;;;;;;;;;;;;;;17.91;77.01;101243.28;5092907;28;20051;-50
2022/09/17 11:45:57;;;;;;;6.60;0.90;;;;;;;18.50;80.91;101245.97;5085684;28;19924;-53